sensor_id;sensor_type;location;lat;lon;timestamp;pressure;altitude;pressure_sealevel;temperature;humidity
67457;BME280;54319;52.038;4.640;2023-06-22T00:00:50;102049.13;;;16.88;100.00
67457;BME280;54319;52.038;4.640;2023-06-22T00:03:18;102051.28;;;16.86;100.00
67457;BME280;54319;52.038;4.640;2023-06-22T00:05:45;102060.38;;;16.86;100.00
67457;BME280;54319;52.038;4.640;2023-06-22T00:08:14;102054.03;;;16.86;100.00
67457;BME280;54319;52.038;4.640;2023-06-22T00:10:40;102052.09;;;16.86;100.00
67457;BME280;54319;52.038;4.640;2023-06-22T00:13:08;102048.56;;;16.79;100.00
67457;BME280;54319;52.038;4.640;2023-06-22T00:15:36;102045.03;;;16.72;100.00
67457;BME280;54319;52.038;4.640;2023-06-22T00:18:04;102051.31;;;16.79;100.00
67457;BME280;54319;52.038;4.640;2023-06-22T00:20:31;102044.41;;;16.70;100.00
67457;BME280;54319;52.038;4.640;2023-06-22T00:23:03;102044.00;;;16.66;100.00
67457;BME280;54319;52.038;4.640;2023-06-22T00:25:34;102048.84;;;16.71;100.00
67457;BME280;54319;52.038;4.640;2023-06-22T00:28:01;102047.59;;;16.67;100.00
67457;BME280;54319;52.038;4.640;2023-06-22T00:30:28;102049.97;;;16.63;100.00
67457;BME280;54319;52.038;4.640;2023-06-22T00:32:55;102043.59;;;16.62;100.00
67457;BME280;54319;52.038;4.640;2023-06-22T00:35:21;102045.34;;;16.57;100.00
67457;BME280;54319;52.038;4.640;2023-06-22T00:37:48;102028.88;;;16.50;100.00
67457;BME280;54319;52.038;4.640;2023-06-22T00:40:17;102036.72;;;16.46;100.00
67457;BME280;54319;52.038;4.640;2023-06-22T00:42:48;102026.16;;;16.43;100.00
67457;BME280;54319;52.038;4.640;2023-06-22T00:45:15;102013.53;;;16.35;100.00
67457;BME280;54319;52.038;4.640;2023-06-22T00:47:41;102027.03;;;16.37;100.00
67457;BME280;54319;52.038;4.640;2023-06-22T00:50:13;102023.06;;;16.33;100.00
67457;BME280;54319;52.038;4.640;2023-06-22T00:52:47;102018.19;;;16.28;100.00
67457;BME280;54319;52.038;4.640;2023-06-22T00:55:14;102015.28;;;16.23;100.00
67457;BME280;54319;52.038;4.640;2023-06-22T00:57:43;102008.97;;;16.16;100.00
67457;BME280;54319;52.038;4.640;2023-06-22T01:00:14;102016.78;;;16.19;100.00
67457;BME280;54319;52.038;4.640;2023-06-22T01:02:46;102014.72;;;16.14;100.00
67457;BME280;54319;52.038;4.640;2023-06-22T01:05:17;102020.44;;;16.13;100.00
67457;BME280;54319;52.038;4.640;2023-06-22T01:07:54;102017.69;;;16.13;100.00
67457;BME280;54319;52.038;4.640;2023-06-22T01:10:27;102018.97;;;16.10;100.00
67457;BME280;54319;52.038;4.640;2023-06-22T01:13:01;101994.94;;;15.92;100.00
67457;BME280;54319;52.038;4.640;2023-06-22T01:15:33;102027.44;;;16.09;100.00
67457;BME280;54319;52.038;4.640;2023-06-22T01:18:04;102020.91;;;16.03;100.00
67457;BME280;54319;52.038;4.640;2023-06-22T01:20:32;102001.50;;;15.91;100.00
67457;BME280;54319;52.038;4.640;2023-06-22T01:23:10;102027.66;;;16.07;100.00
67457;BME280;54319;52.038;4.640;2023-06-22T01:25:45;102007.56;;;16.00;100.00
67457;BME280;54319;52.038;4.640;2023-06-22T01:28:24;102010.31;;;16.06;100.00
67457;BME280;54319;52.038;4.640;2023-06-22T01:30:53;102008.16;;;16.09;100.00
67457;BME280;54319;52.038;4.640;2023-06-22T01:33:33;102007.09;;;16.10;100.00
67457;BME280;54319;52.038;4.640;2023-06-22T01:36:01;102007.09;;;16.10;100.00
67457;BME280;54319;52.038;4.640;2023-06-22T01:38:29;102004.16;;;16.11;100.00
67457;BME280;54319;52.038;4.640;2023-06-22T01:40:57;102010.47;;;16.12;100.00
67457;BME280;54319;52.038;4.640;2023-06-22T01:43:25;102012.41;;;16.11;100.00
67457;BME280;54319;52.038;4.640;2023-06-22T01:45:54;102018.97;;;16.10;100.00
67457;BME280;54319;52.038;4.640;2023-06-22T01:48:22;102020.88;;;16.10;100.00
67457;BME280;54319;52.038;4.640;2023-06-22T01:50:51;102018.56;;;16.06;100.00
67457;BME280;54319;52.038;4.640;2023-06-22T01:53:18;102009.06;;;16.02;100.00
67457;BME280;54319;52.038;4.640;2023-06-22T01:55:45;102015.63;;;16.01;100.00
67457;BME280;54319;52.038;4.640;2023-06-22T01:58:12;102009.50;;;15.99;100.00
67457;BME280;54319;52.038;4.640;2023-06-22T02:00:41;102008.03;;;15.97;100.00
67457;BME280;54319;52.038;4.640;2023-06-22T02:03:15;102005.50;;;15.95;100.00
67457;BME280;54319;52.038;4.640;2023-06-22T02:05:48;102006.56;;;15.94;100.00
67457;BME280;54319;52.038;4.640;2023-06-22T02:08:19;101996.00;;;15.91;100.00
67457;BME280;54319;52.038;4.640;2023-06-22T02:10:47;101994.53;;;15.88;100.00
67457;BME280;54319;52.038;4.640;2023-06-22T02:13:15;101983.78;;;15.73;100.00
67457;BME280;54319;52.038;4.640;2023-06-22T02:15:42;102007.63;;;15.86;100.00
67457;BME280;54319;52.038;4.640;2023-06-22T02:18:10;102007.00;;;15.84;100.00
67457;BME280;54319;52.038;4.640;2023-06-22T02:20:39;101997.09;;;15.76;100.00
67457;BME280;54319;52.038;4.640;2023-06-22T02:23:07;101991.59;;;15.70;100.00
67457;BME280;54319;52.038;4.640;2023-06-22T02:25:33;101985.47;;;15.68;100.00
67457;BME280;54319;52.038;4.640;2023-06-22T02:28:00;102000.72;;;15.70;100.00
67457;BME280;54319;52.038;4.640;2023-06-22T02:30:27;101997.72;;;15.72;100.00
67457;BME280;54319;52.038;4.640;2023-06-22T02:32:53;101973.22;;;15.63;100.00
67457;BME280;54319;52.038;4.640;2023-06-22T02:35:24;101993.72;;;15.74;100.00
67457;BME280;54319;52.038;4.640;2023-06-22T02:37:52;101975.53;;;15.67;100.00
67457;BME280;54319;52.038;4.640;2023-06-22T02:40:19;101985.03;;;15.71;100.00
67457;BME280;54319;52.038;4.640;2023-06-22T02:42:46;101986.97;;;15.70;100.00
67457;BME280;54319;52.038;4.640;2023-06-22T02:45:12;101989.47;;;15.72;100.00
67457;BME280;54319;52.038;4.640;2023-06-22T02:47:39;101978.09;;;15.68;100.00
67457;BME280;54319;52.038;4.640;2023-06-22T02:50:06;101992.22;;;15.78;100.00
67457;BME280;54319;52.038;4.640;2023-06-22T02:52:33;101989.69;;;15.77;100.00
67457;BME280;54319;52.038;4.640;2023-06-22T02:55:01;101988.41;;;15.80;100.00
67457;BME280;54319;52.038;4.640;2023-06-22T02:57:28;101994.34;;;15.76;100.00
67457;BME280;54319;52.038;4.640;2023-06-22T02:59:55;101997.53;;;15.73;100.00
67457;BME280;54319;52.038;4.640;2023-06-22T03:02:22;102008.75;;;15.72;100.00
67457;BME280;54319;52.038;4.640;2023-06-22T03:04:49;101997.53;;;15.67;100.00
67457;BME280;54319;52.038;4.640;2023-06-22T03:07:15;102003.28;;;15.65;100.00
67457;BME280;54319;52.038;4.640;2023-06-22T03:09:42;102002.66;;;15.63;100.00
67457;BME280;54319;52.038;4.640;2023-06-22T03:12:11;101995.28;;;15.57;100.00
67457;BME280;54319;52.038;4.640;2023-06-22T03:14:37;102012.41;;;15.59;100.00
67457;BME280;54319;52.038;4.640;2023-06-22T03:17:04;102010.72;;;15.58;100.00
67457;BME280;54319;52.038;4.640;2023-06-22T03:19:31;101987.88;;;15.51;100.00
67457;BME280;54319;52.038;4.640;2023-06-22T03:21:59;101978.34;;;15.53;100.00
67457;BME280;54319;52.038;4.640;2023-06-22T03:24:26;101988.91;;;15.56;100.00
67457;BME280;54319;52.038;4.640;2023-06-22T03:26:54;101969.94;;;15.48;100.00
67457;BME280;54319;52.038;4.640;2023-06-22T03:29:23;101978.16;;;15.55;100.00
67457;BME280;54319;52.038;4.640;2023-06-22T03:31:50;101987.69;;;15.52;100.00
67457;BME280;54319;52.038;4.640;2023-06-22T03:34:17;101976.25;;;15.48;100.00
67457;BME280;54319;52.038;4.640;2023-06-22T03:36:44;101979.25;;;15.47;100.00
67457;BME280;54319;52.038;4.640;2023-06-22T03:39:11;101988.13;;;15.42;100.00
67457;BME280;54319;52.038;4.640;2023-06-22T03:41:38;101955.19;;;15.29;100.00
67457;BME280;54319;52.038;4.640;2023-06-22T03:44:04;101962.75;;;15.40;100.00
67457;BME280;54319;52.038;4.640;2023-06-22T03:46:32;101964.44;;;15.41;100.00
67457;BME280;54319;52.038;4.640;2023-06-22T03:48:59;101962.75;;;15.40;100.00
67457;BME280;54319;52.038;4.640;2023-06-22T03:51:26;101975.88;;;15.38;100.00
67457;BME280;54319;52.038;4.640;2023-06-22T03:53:53;101964.88;;;15.45;100.00
67457;BME280;54319;52.038;4.640;2023-06-22T03:56:19;101959.31;;;15.52;100.00
67457;BME280;54319;52.038;4.640;2023-06-22T03:58:46;101959.97;;;15.54;100.00
67457;BME280;54319;52.038;4.640;2023-06-22T04:01:13;101960.16;;;15.59;100.00
67457;BME280;54319;52.038;4.640;2023-06-22T04:03:41;101959.09;;;15.60;100.00
67457;BME280;54319;52.038;4.640;2023-06-22T04:06:08;101959.09;;;15.60;100.00
67457;BME280;54319;52.038;4.640;2023-06-22T04:08:35;101955.84;;;15.70;100.00
67457;BME280;54319;52.038;4.640;2023-06-22T04:11:01;101953.31;;;15.75;100.00
67457;BME280;54319;52.038;4.640;2023-06-22T04:13:28;101956.25;;;15.80;100.00
67457;BME280;54319;52.038;4.640;2023-06-22T04:15:55;101954.50;;;15.86;100.00
67457;BME280;54319;52.038;4.640;2023-06-22T04:18:21;101946.88;;;15.88;100.00
67457;BME280;54319;52.038;4.640;2023-06-22T04:20:49;101958.31;;;15.91;100.00
67457;BME280;54319;52.038;4.640;2023-06-22T04:23:16;101962.31;;;15.96;100.00
67457;BME280;54319;52.038;4.640;2023-06-22T04:25:43;101942.41;;;15.94;100.00
67457;BME280;54319;52.038;4.640;2023-06-22T04:28:09;101957.22;;;15.99;100.00
67457;BME280;54319;52.038;4.640;2023-06-22T04:30:38;101958.91;;;16.00;100.00
67457;BME280;54319;52.038;4.640;2023-06-22T04:33:12;101966.72;;;16.03;100.00
67457;BME280;54319;52.038;4.640;2023-06-22T04:35:38;101957.34;;;16.11;100.00
67457;BME280;54319;52.038;4.640;2023-06-22T04:38:08;101945.94;;;16.08;100.00
67457;BME280;54319;52.038;4.640;2023-06-22T04:40:35;101958.53;;;16.22;100.00
67457;BME280;54319;52.038;4.640;2023-06-22T04:43:02;101959.97;;;16.31;100.00
67457;BME280;54319;52.038;4.640;2023-06-22T04:45:29;101958.44;;;16.35;100.00
67457;BME280;54319;52.038;4.640;2023-06-22T04:47:55;101969.63;;;16.41;100.00
67457;BME280;54319;52.038;4.640;2023-06-22T04:50:22;101969.56;;;16.47;100.00
67457;BME280;54319;52.038;4.640;2023-06-22T04:52:49;101972.50;;;16.53;100.00
67457;BME280;54319;52.038;4.640;2023-06-22T04:55:19;101970.53;;;16.60;100.00
67457;BME280;54319;52.038;4.640;2023-06-22T04:57:46;101963.25;;;16.66;100.00
67457;BME280;54319;52.038;4.640;2023-06-22T05:00:15;101954.16;;;16.65;100.00
67457;BME280;54319;52.038;4.640;2023-06-22T05:02:43;101963.19;;;16.72;100.00
67457;BME280;54319;52.038;4.640;2023-06-22T05:05:11;101963.16;;;16.79;100.00
67457;BME280;54319;52.038;4.640;2023-06-22T05:07:39;101976.63;;;16.87;100.00
67457;BME280;54319;52.038;4.640;2023-06-22T05:10:08;101972.97;;;16.93;100.00
67457;BME280;54319;52.038;4.640;2023-06-22T05:12:37;101968.50;;;16.99;100.00
67457;BME280;54319;52.038;4.640;2023-06-22T05:15:04;101965.69;;;17.06;100.00
67457;BME280;54319;52.038;4.640;2023-06-22T05:17:31;101969.41;;;17.12;100.00
67457;BME280;54319;52.038;4.640;2023-06-22T05:19:58;101970.16;;;17.19;100.00
67457;BME280;54319;52.038;4.640;2023-06-22T05:22:24;101969.03;;;17.27;100.00
67457;BME280;54319;52.038;4.640;2023-06-22T05:24:51;101968.09;;;17.33;100.00
67457;BME280;54319;52.038;4.640;2023-06-22T05:27:18;101961.44;;;17.41;100.00
67457;BME280;54319;52.038;4.640;2023-06-22T05:29:46;101961.06;;;17.56;100.00
67457;BME280;54319;52.038;4.640;2023-06-22T05:32:12;101963.63;;;17.69;100.00
67457;BME280;54319;52.038;4.640;2023-06-22T05:34:42;101969.41;;;17.79;100.00
67457;BME280;54319;52.038;4.640;2023-06-22T05:37:08;101966.97;;;17.90;100.00
67457;BME280;54319;52.038;4.640;2023-06-22T05:39:35;101961.31;;;17.97;100.00
67457;BME280;54319;52.038;4.640;2023-06-22T05:42:04;101963.56;;;18.06;100.00
67457;BME280;54319;52.038;4.640;2023-06-22T05:44:31;101970.69;;;18.14;100.00
67457;BME280;54319;52.038;4.640;2023-06-22T05:47:00;101965.06;;;18.21;100.00
67457;BME280;54319;52.038;4.640;2023-06-22T05:49:26;101967.94;;;18.26;100.00
67457;BME280;54319;52.038;4.640;2023-06-22T05:51:55;101979.13;;;18.31;100.00
67457;BME280;54319;52.038;4.640;2023-06-22T05:54:21;101973.94;;;18.35;100.00
67457;BME280;54319;52.038;4.640;2023-06-22T05:56:48;101970.47;;;18.40;100.00
67457;BME280;54319;52.038;4.640;2023-06-22T05:59:15;101976.13;;;18.45;100.00
67457;BME280;54319;52.038;4.640;2023-06-22T06:01:41;101978.19;;;18.49;100.00
67457;BME280;54319;52.038;4.640;2023-06-22T06:04:09;101973.88;;;18.54;100.00
67457;BME280;54319;52.038;4.640;2023-06-22T06:06:36;101967.66;;;18.58;100.00
67457;BME280;54319;52.038;4.640;2023-06-22T06:09:03;101974.38;;;18.62;100.00
67457;BME280;54319;52.038;4.640;2023-06-22T06:11:30;101930.25;;;18.44;100.00
67457;BME280;54319;52.038;4.640;2023-06-22T06:13:57;101959.94;;;18.72;100.00
67457;BME280;54319;52.038;4.640;2023-06-22T06:16:23;101963.06;;;18.76;100.00
67457;BME280;54319;52.038;4.640;2023-06-22T06:18:50;101962.09;;;18.82;100.00
67457;BME280;54319;52.038;4.640;2023-06-22T06:21:20;101957.19;;;18.84;100.00
67457;BME280;54319;52.038;4.640;2023-06-22T06:23:46;101964.28;;;18.92;100.00
67457;BME280;54319;52.038;4.640;2023-06-22T06:26:13;101966.09;;;18.98;100.00
67457;BME280;54319;52.038;4.640;2023-06-22T06:28:42;101965.97;;;19.05;100.00
67457;BME280;54319;52.038;4.640;2023-06-22T06:31:08;101962.13;;;19.06;100.00
67457;BME280;54319;52.038;4.640;2023-06-22T06:33:37;101955.41;;;19.14;100.00
67457;BME280;54319;52.038;4.640;2023-06-22T06:36:04;101953.66;;;19.24;100.00
67457;BME280;54319;52.038;4.640;2023-06-22T06:38:32;101950.53;;;19.33;100.00
67457;BME280;54319;52.038;4.640;2023-06-22T06:40:58;101953.41;;;19.38;100.00
67457;BME280;54319;52.038;4.640;2023-06-22T06:43:25;101953.03;;;19.46;100.00
67457;BME280;54319;52.038;4.640;2023-06-22T06:45:52;101958.16;;;19.55;100.00
67457;BME280;54319;52.038;4.640;2023-06-22T06:48:18;101956.34;;;19.60;100.00
67457;BME280;54319;52.038;4.640;2023-06-22T06:50:45;101936.34;;;19.70;99.42
67457;BME280;54319;52.038;4.640;2023-06-22T06:53:12;101934.53;;;19.64;97.94
67457;BME280;54319;52.038;4.640;2023-06-22T06:55:40;101939.28;;;19.80;97.67
67457;BME280;54319;52.038;4.640;2023-06-22T06:58:07;101942.75;;;19.88;97.28
67457;BME280;54319;52.038;4.640;2023-06-22T07:00:35;101921.59;;;19.81;97.21
67457;BME280;54319;52.038;4.640;2023-06-22T07:03:05;101940.88;;;20.05;96.29
67457;BME280;54319;52.038;4.640;2023-06-22T07:05:32;101929.91;;;20.10;94.66
67457;BME280;54319;52.038;4.640;2023-06-22T07:07:59;101937.28;;;20.22;94.95
67457;BME280;54319;52.038;4.640;2023-06-22T07:10:25;101907.25;;;20.14;92.55
67457;BME280;54319;52.038;4.640;2023-06-22T07:12:54;101942.50;;;20.35;92.09
67457;BME280;54319;52.038;4.640;2023-06-22T07:15:22;101929.28;;;20.43;91.10
67457;BME280;54319;52.038;4.640;2023-06-22T07:17:49;101925.94;;;20.58;90.88
67457;BME280;54319;52.038;4.640;2023-06-22T07:20:15;101921.16;;;20.70;90.02
67457;BME280;54319;52.038;4.640;2023-06-22T07:22:44;101931.16;;;20.88;87.98
67457;BME280;54319;52.038;4.640;2023-06-22T07:25:11;101910.69;;;20.94;83.68
67457;BME280;54319;52.038;4.640;2023-06-22T07:27:43;101925.03;;;21.31;83.29
67457;BME280;54319;52.038;4.640;2023-06-22T07:30:12;101923.44;;;21.62;81.26
67457;BME280;54319;52.038;4.640;2023-06-22T07:32:39;101913.50;;;21.94;80.78
67457;BME280;54319;52.038;4.640;2023-06-22T07:35:06;101920.63;;;22.12;75.68
67457;BME280;54319;52.038;4.640;2023-06-22T07:37:33;101920.50;;;22.34;75.62
67457;BME280;54319;52.038;4.640;2023-06-22T07:40:00;101927.06;;;22.50;73.27
67457;BME280;54319;52.038;4.640;2023-06-22T07:42:29;101919.44;;;22.73;74.85
67457;BME280;54319;52.038;4.640;2023-06-22T07:44:58;101900.59;;;22.91;73.35
67457;BME280;54319;52.038;4.640;2023-06-22T07:47:26;101913.84;;;23.21;71.13
67457;BME280;54319;52.038;4.640;2023-06-22T07:49:53;101890.25;;;23.34;71.42
67457;BME280;54319;52.038;4.640;2023-06-22T07:52:23;101905.66;;;23.73;71.06
67457;BME280;54319;52.038;4.640;2023-06-22T07:54:49;101907.63;;;23.83;69.63
67457;BME280;54319;52.038;4.640;2023-06-22T07:57:16;101897.34;;;23.94;67.59
67457;BME280;54319;52.038;4.640;2023-06-22T07:59:43;101899.25;;;23.98;64.73
67457;BME280;54319;52.038;4.640;2023-06-22T08:02:10;101903.78;;;24.20;64.82
67457;BME280;54319;52.038;4.640;2023-06-22T08:04:38;101905.16;;;24.28;64.74
67457;BME280;54319;52.038;4.640;2023-06-22T08:07:06;101891.22;;;24.38;64.05
67457;BME280;54319;52.038;4.640;2023-06-22T08:09:33;101889.50;;;24.58;63.88
67457;BME280;54319;52.038;4.640;2023-06-22T08:11:59;101887.81;;;24.67;63.79
67457;BME280;54319;52.038;4.640;2023-06-22T08:14:26;101881.34;;;24.93;61.41
67457;BME280;54319;52.038;4.640;2023-06-22T08:16:53;101879.84;;;25.16;61.74
67457;BME280;54319;52.038;4.640;2023-06-22T08:19:20;101882.34;;;25.23;60.27
67457;BME280;54319;52.038;4.640;2023-06-22T08:21:48;101873.50;;;25.55;61.29
67457;BME280;54319;52.038;4.640;2023-06-22T08:24:15;101882.00;;;26.20;60.80
67457;BME280;54319;52.038;4.640;2023-06-22T08:26:41;101870.97;;;26.58;57.60
67457;BME280;54319;52.038;4.640;2023-06-22T08:29:08;101881.28;;;26.87;58.44
67457;BME280;54319;52.038;4.640;2023-06-22T08:31:35;101883.59;;;27.04;57.71
67457;BME280;54319;52.038;4.640;2023-06-22T08:34:01;101885.47;;;27.33;57.80
67457;BME280;54319;52.038;4.640;2023-06-22T08:36:28;101888.44;;;27.42;54.91
67457;BME280;54319;52.038;4.640;2023-06-22T08:38:56;101876.47;;;27.55;56.67
67457;BME280;54319;52.038;4.640;2023-06-22T08:41:28;101882.09;;;27.55;56.52
67457;BME280;54319;52.038;4.640;2023-06-22T08:43:54;101871.25;;;27.29;55.71
67457;BME280;54319;52.038;4.640;2023-06-22T08:46:21;101871.28;;;27.24;56.13
67457;BME280;54319;52.038;4.640;2023-06-22T08:48:55;101875.91;;;27.15;57.66
67457;BME280;54319;52.038;4.640;2023-06-22T08:51:22;101866.31;;;26.72;57.20
67457;BME280;54319;52.038;4.640;2023-06-22T08:53:48;101865.38;;;26.58;58.63
67457;BME280;54319;52.038;4.640;2023-06-22T08:56:16;101871.09;;;26.72;60.03
67457;BME280;54319;52.038;4.640;2023-06-22T08:58:43;101862.56;;;26.34;57.29
67457;BME280;54319;52.038;4.640;2023-06-22T09:01:09;101863.97;;;26.31;60.30
67457;BME280;54319;52.038;4.640;2023-06-22T09:03:36;101860.22;;;26.17;60.08
67457;BME280;54319;52.038;4.640;2023-06-22T09:06:02;101861.91;;;26.07;61.32
67457;BME280;54319;52.038;4.640;2023-06-22T09:08:29;101859.44;;;26.06;60.52
67457;BME280;54319;52.038;4.640;2023-06-22T09:10:56;101867.16;;;25.84;61.35
67457;BME280;54319;52.038;4.640;2023-06-22T09:13:23;101855.94;;;25.90;61.40
67457;BME280;54319;52.038;4.640;2023-06-22T09:15:51;101856.22;;;25.88;62.54
67457;BME280;54319;52.038;4.640;2023-06-22T09:18:17;101838.19;;;25.70;62.75
67457;BME280;54319;52.038;4.640;2023-06-22T09:20:44;101845.44;;;25.76;61.96
67457;BME280;54319;52.038;4.640;2023-06-22T09:23:11;101835.34;;;25.75;61.77
67457;BME280;54319;52.038;4.640;2023-06-22T09:25:38;101843.78;;;25.70;58.88
67457;BME280;54319;52.038;4.640;2023-06-22T09:28:05;101848.25;;;25.71;60.73
67457;BME280;54319;52.038;4.640;2023-06-22T09:30:33;101851.16;;;25.90;60.15
67457;BME280;54319;52.038;4.640;2023-06-22T09:33:00;101851.41;;;25.94;60.50
67457;BME280;54319;52.038;4.640;2023-06-22T09:35:27;101851.38;;;25.99;59.53
67457;BME280;54319;52.038;4.640;2023-06-22T09:37:54;101849.50;;;25.89;60.62
67457;BME280;54319;52.038;4.640;2023-06-22T09:40:20;101853.81;;;25.71;61.25
67457;BME280;54319;52.038;4.640;2023-06-22T09:42:47;101843.09;;;25.89;61.80
67457;BME280;54319;52.038;4.640;2023-06-22T09:45:13;101821.16;;;25.71;61.59
67457;BME280;54319;52.038;4.640;2023-06-22T09:47:41;101840.34;;;25.83;61.48
67457;BME280;54319;52.038;4.640;2023-06-22T09:50:08;101833.13;;;25.72;60.93
67457;BME280;54319;52.038;4.640;2023-06-22T09:52:35;101827.84;;;25.70;61.81
67457;BME280;54319;52.038;4.640;2023-06-22T09:55:02;101822.97;;;25.86;62.61
67457;BME280;54319;52.038;4.640;2023-06-22T09:57:29;101827.94;;;25.95;60.88
67457;BME280;54319;52.038;4.640;2023-06-22T09:59:56;101821.75;;;25.98;61.34
67457;BME280;54319;52.038;4.640;2023-06-22T10:02:23;101823.75;;;25.92;60.80
67457;BME280;54319;52.038;4.640;2023-06-22T10:04:51;101831.91;;;25.89;60.31
67457;BME280;54319;52.038;4.640;2023-06-22T10:07:19;101830.72;;;25.95;61.40
67457;BME280;54319;52.038;4.640;2023-06-22T10:09:46;101833.56;;;25.90;60.13
67457;BME280;54319;52.038;4.640;2023-06-22T10:12:12;101832.41;;;25.96;60.94
67457;BME280;54319;52.038;4.640;2023-06-22T10:14:39;101831.38;;;25.86;61.20
67457;BME280;54319;52.038;4.640;2023-06-22T10:17:06;101820.72;;;25.89;59.88
67457;BME280;54319;52.038;4.640;2023-06-22T10:19:33;101829.66;;;25.91;61.81
67457;BME280;54319;52.038;4.640;2023-06-22T10:22:04;101830.19;;;25.93;61.13
67457;BME280;54319;52.038;4.640;2023-06-22T10:24:30;101830.13;;;25.98;60.37
67457;BME280;54319;52.038;4.640;2023-06-22T10:26:57;101839.25;;;25.79;58.70
67457;BME280;54319;52.038;4.640;2023-06-22T10:29:24;101833.09;;;25.82;62.04
67457;BME280;54319;52.038;4.640;2023-06-22T10:31:50;101825.88;;;25.76;59.57
67457;BME280;54319;52.038;4.640;2023-06-22T10:34:17;101827.91;;;25.65;60.27
67457;BME280;54319;52.038;4.640;2023-06-22T10:36:44;101835.75;;;25.63;63.13
67457;BME280;54319;52.038;4.640;2023-06-22T10:39:15;101833.53;;;25.60;62.01
67457;BME280;54319;52.038;4.640;2023-06-22T10:41:41;101829.88;;;25.60;62.84
67457;BME280;54319;52.038;4.640;2023-06-22T10:44:08;101833.00;;;25.58;61.16
67457;BME280;54319;52.038;4.640;2023-06-22T10:46:35;101833.81;;;25.58;62.05
67457;BME280;54319;52.038;4.640;2023-06-22T10:49:01;101837.72;;;25.57;62.11
67457;BME280;54319;52.038;4.640;2023-06-22T10:51:28;101817.13;;;25.48;59.72
67457;BME280;54319;52.038;4.640;2023-06-22T10:53:56;101833.78;;;25.64;60.72
67457;BME280;54319;52.038;4.640;2023-06-22T10:56:24;101829.25;;;25.68;61.17
67457;BME280;54319;52.038;4.640;2023-06-22T10:58:51;101837.59;;;25.73;62.00
67457;BME280;54319;52.038;4.640;2023-06-22T11:01:17;101843.59;;;25.61;61.29
67457;BME280;54319;52.038;4.640;2023-06-22T11:03:44;101813.81;;;25.46;60.34
67457;BME280;54319;52.038;4.640;2023-06-22T11:06:10;101841.66;;;25.56;61.70
67457;BME280;54319;52.038;4.640;2023-06-22T11:08:37;101839.41;;;25.58;59.03
67457;BME280;54319;52.038;4.640;2023-06-22T11:11:04;101834.44;;;25.45;60.43
67457;BME280;54319;52.038;4.640;2023-06-22T11:13:32;101847.56;;;25.50;59.41
67457;BME280;54319;52.038;4.640;2023-06-22T11:15:58;101843.94;;;25.44;61.00
67457;BME280;54319;52.038;4.640;2023-06-22T11:18:25;101840.06;;;25.35;59.96
67457;BME280;54319;52.038;4.640;2023-06-22T11:20:51;101836.75;;;25.33;59.89
67457;BME280;54319;52.038;4.640;2023-06-22T11:23:18;101831.81;;;25.19;60.39
67457;BME280;54319;52.038;4.640;2023-06-22T11:25:45;101831.81;;;25.19;61.05
67457;BME280;54319;52.038;4.640;2023-06-22T11:28:12;101832.97;;;25.13;60.30
67457;BME280;54319;52.038;4.640;2023-06-22T11:30:40;101839.06;;;25.20;61.40
67457;BME280;54319;52.038;4.640;2023-06-22T11:33:06;101829.88;;;25.14;61.96
67457;BME280;54319;52.038;4.640;2023-06-22T11:35:33;101827.09;;;25.09;62.89
67457;BME280;54319;52.038;4.640;2023-06-22T11:37:59;101831.91;;;25.04;64.39
67457;BME280;54319;52.038;4.640;2023-06-22T11:40:26;101819.63;;;24.94;66.66
67457;BME280;54319;52.038;4.640;2023-06-22T11:42:53;101819.44;;;24.85;68.72
67457;BME280;54319;52.038;4.640;2023-06-22T11:45:19;101819.72;;;24.79;70.70
67457;BME280;54319;52.038;4.640;2023-06-22T11:47:47;101813.28;;;24.73;70.99
67457;BME280;54319;52.038;4.640;2023-06-22T11:50:14;101811.63;;;24.67;71.78
67457;BME280;54319;52.038;4.640;2023-06-22T11:52:41;101780.19;;;24.46;70.30
67457;BME280;54319;52.038;4.640;2023-06-22T11:55:08;101793.56;;;24.54;69.77
67457;BME280;54319;52.038;4.640;2023-06-22T11:57:36;101783.00;;;24.40;70.65
67457;BME280;54319;52.038;4.640;2023-06-22T12:00:04;101782.72;;;24.47;70.68
67457;BME280;54319;52.038;4.640;2023-06-22T12:02:39;101771.34;;;24.28;71.26
67457;BME280;54319;52.038;4.640;2023-06-22T12:05:08;101769.91;;;24.36;72.33
67457;BME280;54319;52.038;4.640;2023-06-22T12:07:34;101776.03;;;24.38;72.92
67457;BME280;54319;52.038;4.640;2023-06-22T12:10:01;101769.66;;;24.32;71.77
67457;BME280;54319;52.038;4.640;2023-06-22T12:12:28;101768.81;;;24.32;73.05
67457;BME280;54319;52.038;4.640;2023-06-22T12:14:54;101767.13;;;24.31;72.99
67457;BME280;54319;52.038;4.640;2023-06-22T12:17:28;101769.69;;;24.27;73.28
67457;BME280;54319;52.038;4.640;2023-06-22T12:19:55;101762.72;;;24.14;73.44
67457;BME280;54319;52.038;4.640;2023-06-22T12:22:23;101756.31;;;24.13;74.93
67457;BME280;54319;52.038;4.640;2023-06-22T12:24:50;101753.53;;;24.13;75.50
67457;BME280;54319;52.038;4.640;2023-06-22T12:27:17;101760.22;;;24.12;76.45
67457;BME280;54319;52.038;4.640;2023-06-22T12:29:45;101756.06;;;24.10;77.56
67457;BME280;54319;52.038;4.640;2023-06-22T12:32:13;101759.94;;;23.98;77.16
67457;BME280;54319;52.038;4.640;2023-06-22T12:34:39;101761.91;;;23.93;79.57
67457;BME280;54319;52.038;4.640;2023-06-22T12:37:06;101748.00;;;23.72;79.69
67457;BME280;54319;52.038;4.640;2023-06-22T12:39:34;101749.41;;;23.69;81.23
67457;BME280;54319;52.038;4.640;2023-06-22T12:42:01;101731.56;;;23.70;81.92
67457;BME280;54319;52.038;4.640;2023-06-22T12:44:27;101751.34;;;23.74;82.30
67457;BME280;54319;52.038;4.640;2023-06-22T12:46:54;101750.22;;;23.75;82.03